createdAt,value
2022-08-23T00:01:22.344Z,102365.94
2022-08-23T00:03:55.177Z,102368.59
2022-08-23T00:06:24.180Z,102379.06
2022-08-23T00:08:53.649Z,102384.44
2022-08-23T00:11:30.966Z,102383.47
2022-08-23T00:14:00.628Z,102397.63
2022-08-23T00:16:29.271Z,102410.91
2022-08-23T00:18:59.415Z,102412.78
2022-08-23T00:21:29.238Z,102416.34
2022-08-23T00:23:57.888Z,102419.84
2022-08-23T00:26:26.570Z,102424.38
2022-08-23T00:28:54.875Z,102432.41
2022-08-23T00:31:22.836Z,102429.13
2022-08-23T00:33:50.766Z,102427.78
2022-08-23T00:36:20.137Z,102438.81
2022-08-23T00:38:48.061Z,102440.78
2022-08-23T00:41:16.060Z,102440.84
2022-08-23T00:44:01.406Z,102435.75
2022-08-23T00:47:00.595Z,102434.91
2022-08-23T00:49:32.346Z,102443.06
2022-08-23T00:52:07.726Z,102444.16
2022-08-23T00:54:38.949Z,102441.69
2022-08-23T00:57:12.857Z,102451.53
2022-08-23T00:59:41.483Z,102449.16
2022-08-23T01:02:10.832Z,102444.19
2022-08-23T01:04:41.224Z,102435.69
2022-08-23T01:07:16.956Z,102430.72
2022-08-23T01:09:47.725Z,102427.38
2022-08-23T01:12:32.254Z,102437.31
2022-08-23T01:15:06.715Z,102433.97
2022-08-23T01:17:41.714Z,102425.41
2022-08-23T01:20:16.992Z,102425.47
2022-08-23T01:22:53.815Z,102420.25
2022-08-23T01:25:25.005Z,102419.47
2022-08-23T01:27:53.294Z,102429.94
2022-08-23T01:30:23.858Z,102433.38
2022-08-23T01:32:56.193Z,102436.56
2022-08-23T01:35:32.136Z,102449.44
2022-08-23T01:38:00.171Z,102458.81
2022-08-23T01:40:30.162Z,102450.75
2022-08-23T01:42:58.293Z,102468.09
2022-08-23T01:45:26.343Z,102469.66
2022-08-23T01:47:54.444Z,102469.47
2022-08-23T01:50:22.670Z,102462.25
2022-08-23T01:52:50.797Z,102451.63
2022-08-23T01:55:19.699Z,102456.81
2022-08-23T01:57:51.828Z,102455.91
2022-08-23T02:00:21.363Z,102463.81
2022-08-23T02:02:49.595Z,102467.38
2022-08-23T02:05:19.221Z,102469.09
2022-08-23T02:07:49.838Z,102469.16
2022-08-23T02:10:18.602Z,102471.72
2022-08-23T02:12:48.256Z,102482.28
2022-08-23T02:15:17.423Z,102481.31
2022-08-23T02:17:46.614Z,102479.50
2022-08-23T02:20:14.953Z,102472.41
2022-08-23T02:22:43.286Z,102468.75
2022-08-23T02:25:11.465Z,102473.19
2022-08-23T02:27:43.882Z,102473.97
2022-08-23T02:30:17.019Z,102472.19
2022-08-23T02:32:45.032Z,102483.59
2022-08-23T02:35:15.742Z,102488.00
2022-08-23T02:37:44.899Z,102486.22
2022-08-23T02:40:13.296Z,102483.59
2022-08-23T02:42:42.203Z,102493.19
2022-08-23T02:45:11.377Z,102490.56
2022-08-23T02:47:40.837Z,102512.53
2022-08-23T02:50:09.987Z,102518.66
2022-08-23T02:52:37.979Z,102510.75
2022-08-23T02:55:07.647Z,102511.66
2022-08-23T02:57:35.629Z,102512.53
2022-08-23T03:00:05.254Z,102504.69
2022-08-23T03:02:33.312Z,102519.69
2022-08-23T03:05:02.738Z,102521.44
2022-08-23T03:07:31.182Z,102517.91
2022-08-23T03:10:02.411Z,102523.16
2022-08-23T03:12:31.010Z,102525.81
2022-08-23T03:14:59.116Z,102521.50
2022-08-23T03:17:27.624Z,102527.81
2022-08-23T03:19:55.598Z,102530.63
2022-08-23T03:22:24.989Z,102516.72
2022-08-23T03:24:53.088Z,102517.75
2022-08-23T03:27:21.065Z,102517.91
2022-08-23T03:29:49.029Z,102517.13
2022-08-23T03:32:17.333Z,102517.03
2022-08-23T03:34:45.341Z,102522.31
2022-08-23T03:37:13.395Z,102522.31
2022-08-23T03:39:42.969Z,102514.41
2022-08-23T03:42:11.512Z,102512.63
2022-08-23T03:44:39.764Z,102511.78
2022-08-23T03:47:07.833Z,102509.22
2022-08-23T03:49:35.802Z,102505.78
2022-08-23T03:52:04.315Z,102504.09
2022-08-23T03:54:32.598Z,102505.78
2022-08-23T03:57:04.577Z,102507.59
2022-08-23T03:59:34.993Z,102511.91
2022-08-23T04:02:03.089Z,102515.50
2022-08-23T04:04:31.170Z,102509.38
2022-08-23T04:06:59.137Z,102510.28
2022-08-23T04:09:30.061Z,102512.22
2022-08-23T04:11:58.102Z,102510.44
2022-08-23T04:14:27.508Z,102509.69
2022-08-23T04:16:55.817Z,102508.81
2022-08-23T04:19:24.369Z,102513.25
2022-08-23T04:21:53.964Z,102503.56
2022-08-23T04:24:21.928Z,102505.28
2022-08-23T04:26:51.162Z,102501.78
2022-08-23T04:29:34.269Z,102508.75
2022-08-23T04:32:05.500Z,102499.03
2022-08-23T04:34:36.363Z,102498.13
2022-08-23T04:37:04.369Z,102500.66
2022-08-23T04:39:57.888Z,102505.94
2022-08-23T04:42:25.957Z,102507.66
2022-08-23T04:44:53.909Z,102502.38
2022-08-23T04:47:23.892Z,102494.47
2022-08-23T04:49:51.859Z,102497.25
2022-08-23T04:52:19.867Z,102495.56
2022-08-23T04:54:47.898Z,102492.09
2022-08-23T04:57:16.897Z,102494.63
2022-08-23T04:59:44.969Z,102492.00
2022-08-23T05:02:15.797Z,102488.44
2022-08-23T05:04:45.073Z,102486.72
2022-08-23T05:07:13.178Z,102487.47
2022-08-23T05:09:41.077Z,102486.56
2022-08-23T05:12:09.442Z,102485.63
2022-08-23T05:14:37.406Z,102489.97
2022-08-23T05:17:05.875Z,102489.97
2022-08-23T05:19:33.859Z,102482.84
2022-08-23T05:22:03.916Z,102481.91
2022-08-23T05:24:32.144Z,102479.25
2022-08-23T05:27:00.157Z,102481.91
2022-08-23T05:29:28.273Z,102473.06
2022-08-23T05:31:57.224Z,102472.09
2022-08-23T05:34:25.586Z,102469.41
2022-08-23T05:36:55.461Z,102461.41
2022-08-23T05:39:35.972Z,102452.56
2022-08-23T05:42:05.612Z,102450.69
2022-08-23T05:44:36.370Z,102461.25
2022-08-23T05:47:11.121Z,102448.16
2022-08-23T05:49:40.409Z,102440.13
2022-08-23T05:52:11.831Z,102440.13
2022-08-23T05:54:41.282Z,102442.72
2022-08-23T05:57:10.571Z,102431.13
2022-08-23T05:59:38.627Z,102430.19
2022-08-23T06:02:09.503Z,102429.25
2022-08-23T06:04:37.694Z,102428.25
2022-08-23T06:07:06.681Z,102422.81
2022-08-23T06:09:34.628Z,102421.78
2022-08-23T06:12:04.713Z,102420.75
2022-08-23T06:14:32.762Z,102422.31
2022-08-23T06:17:00.891Z,102422.97
2022-08-23T06:19:28.828Z,102431.69
2022-08-23T06:21:56.836Z,102427.94
2022-08-23T06:24:24.819Z,102433.81
2022-08-23T06:26:52.764Z,102425.72
2022-08-23T06:29:22.873Z,102434.41
2022-08-23T06:31:52.748Z,102436.13
2022-08-23T06:34:23.119Z,102446.69
2022-08-23T06:36:53.608Z,102443.13
2022-08-23T06:39:23.317Z,102448.41
2022-08-23T06:41:51.423Z,102447.38
2022-08-23T06:44:21.507Z,102454.34
2022-08-23T06:46:49.566Z,102446.34
2022-08-23T06:49:17.884Z,102440.97
2022-08-23T06:51:49.576Z,102446.19
2022-08-23T06:54:22.019Z,102446.78
2022-08-23T06:56:50.917Z,102449.78
2022-08-23T06:59:21.493Z,102446.53
2022-08-23T07:01:53.667Z,102435.28
2022-08-23T07:04:24.555Z,102403.81
2022-08-23T07:06:52.830Z,102408.31
2022-08-23T07:09:20.913Z,102421.66
2022-08-23T07:11:49.328Z,102425.66
2022-08-23T07:14:20.113Z,102419.22
2022-08-23T07:16:51.731Z,102422.63
2022-08-23T07:19:21.453Z,102442.00
2022-08-23T07:21:50.999Z,102449.00
2022-08-23T07:24:19.790Z,102451.34
2022-08-23T07:26:49.680Z,102459.06
2022-08-23T07:29:18.592Z,102464.09
2022-08-23T07:31:50.683Z,102467.19
2022-08-23T07:34:19.458Z,102471.09
2022-08-23T07:36:49.051Z,102466.97
2022-08-23T07:39:18.906Z,102467.16
2022-08-23T07:41:47.396Z,102462.34
2022-08-23T07:44:18.254Z,102457.63
2022-08-23T07:46:47.818Z,102466.06
2022-08-23T07:49:17.842Z,102472.59
2022-08-23T07:51:48.971Z,102485.53
2022-08-23T07:54:18.216Z,102490.06
2022-08-23T07:56:46.803Z,102506.03
2022-08-23T07:59:15.000Z,102521.84
2022-08-23T08:01:45.057Z,102534.91
2022-08-23T08:04:13.629Z,102546.06
2022-08-23T08:06:46.377Z,102562.50
2022-08-23T08:09:16.072Z,102565.25
2022-08-23T08:11:47.416Z,102577.53
2022-08-23T08:14:18.483Z,102586.72
2022-08-23T08:16:48.735Z,102612.44
2022-08-23T08:19:19.863Z,102629.94
2022-08-23T08:21:49.458Z,102665.78
2022-08-23T08:24:18.508Z,102664.03
2022-08-23T08:26:47.408Z,102674.06
2022-08-23T08:29:15.967Z,102681.75
2022-08-23T08:31:46.713Z,102694.81
2022-08-23T08:34:15.266Z,102722.31
2022-08-23T08:36:45.473Z,102741.44
2022-08-23T08:39:18.805Z,102744.19
2022-08-23T08:42:00.341Z,102777.63
2022-08-23T08:44:46.180Z,102785.53
2022-08-23T08:47:20.735Z,102787.72
2022-08-23T08:49:58.206Z,102747.16
2022-08-23T08:52:31.080Z,102725.75
2022-08-23T08:55:06.849Z,102737.50
2022-08-23T08:57:41.590Z,102732.69
2022-08-23T09:00:13.924Z,102718.84
2022-08-23T09:02:45.114Z,102724.81
2022-08-23T09:05:15.784Z,102727.38
2022-08-23T09:07:51.920Z,102730.31
2022-08-23T09:10:54.421Z,102712.47
2022-08-23T09:13:59.581Z,102706.44
2022-08-23T09:16:39.384Z,102675.19
2022-08-23T09:19:07.730Z,102683.97
2022-08-23T09:21:44.721Z,102703.13
2022-08-23T09:24:13.461Z,102700.28
2022-08-23T09:26:43.692Z,102673.88
2022-08-23T09:29:20.120Z,102674.06
2022-08-23T09:31:52.527Z,102664.50
2022-08-23T09:34:23.378Z,102666.94
2022-08-23T09:36:52.413Z,102638.34
2022-08-23T09:39:31.184Z,102630.06
2022-08-23T09:42:01.203Z,102620.56
2022-08-23T09:44:36.922Z,102611.47
2022-08-23T09:47:11.866Z,102598.69
2022-08-23T09:49:41.359Z,102602.97
2022-08-23T09:52:22.755Z,102593.59
2022-08-23T09:55:03.057Z,102585.06
2022-08-23T09:57:34.366Z,102584.22
2022-08-23T10:00:18.655Z,102577.47
2022-08-23T10:02:46.577Z,102573.28
2022-08-23T10:05:19.915Z,102560.81
2022-08-23T10:07:57.187Z,102542.56
2022-08-23T10:10:32.641Z,102528.22
2022-08-23T10:13:03.234Z,102541.13
2022-08-23T10:15:49.364Z,102546.22
2022-08-23T10:18:27.628Z,102547.81
2022-08-23T10:21:01.815Z,102543.53
2022-08-23T10:23:43.149Z,102535.16
2022-08-23T10:26:20.824Z,102526.97
2022-08-23T10:29:13.815Z,102524.09
2022-08-23T10:31:47.326Z,102516.78
2022-08-23T10:34:30.050Z,102535.13
2022-08-23T10:37:15.756Z,102529.31
2022-08-23T10:39:50.046Z,102535.13
2022-08-23T10:42:31.788Z,102526.09
2022-08-23T10:45:10.878Z,102529.38
2022-08-23T10:47:46.675Z,102528.31
2022-08-23T10:50:20.834Z,102524.16
2022-08-23T10:52:55.501Z,102524.50
2022-08-23T10:55:39.230Z,102515.78
2022-08-23T10:58:13.259Z,102520.56
2022-08-23T11:00:43.803Z,102495.34
2022-08-23T11:03:26.898Z,102476.25
2022-08-23T11:06:26.544Z,102444.13
2022-08-23T11:09:04.907Z,102437.88
2022-08-23T11:11:40.626Z,102446.13
2022-08-23T11:14:10.836Z,102446.97
2022-08-23T11:16:43.138Z,102447.50
2022-08-23T11:19:35.314Z,102451.06
2022-08-23T11:22:15.673Z,102439.63
2022-08-23T11:24:55.753Z,102453.34
2022-08-23T11:27:39.352Z,102441.47
2022-08-23T11:30:46.508Z,102439.56
2022-08-23T11:33:24.013Z,102428.56
2022-08-23T11:35:54.906Z,102422.78
2022-08-23T11:39:04.989Z,102417.78
2022-08-23T11:41:34.548Z,102432.94
2022-08-23T11:44:24.337Z,102441.53
2022-08-23T11:47:04.547Z,102447.69
2022-08-23T11:50:12.038Z,102458.44
2022-08-23T11:52:57.026Z,102464.06
2022-08-23T11:55:46.444Z,102478.88
2022-08-23T11:58:24.403Z,102489.28
2022-08-23T12:01:06.442Z,102489.81
2022-08-23T12:03:37.793Z,102484.84
2022-08-23T12:06:12.808Z,102486.16
2022-08-23T12:09:02.464Z,102480.59
2022-08-23T12:12:02.256Z,102463.56
2022-08-23T12:14:37.444Z,102451.72
2022-08-23T12:17:27.604Z,102441.09
2022-08-23T12:20:01.546Z,102441.09
2022-08-23T12:22:35.443Z,102442.94
2022-08-23T12:25:06.110Z,102438.88
2022-08-23T12:27:37.647Z,102436.34
2022-08-23T12:30:10.865Z,102411.63
2022-08-23T12:32:45.602Z,102400.13
2022-08-23T12:35:32.983Z,102385.63
2022-08-23T12:38:08.787Z,102395.41
2022-08-23T12:40:42.101Z,102384.63
2022-08-23T12:43:21.238Z,102377.28
2022-08-23T12:45:54.072Z,102378.56
2022-08-23T12:48:25.488Z,102396.50
2022-08-23T12:50:57.134Z,102396.13
2022-08-23T12:53:33.215Z,102385.50
2022-08-23T12:56:03.679Z,102388.66
2022-08-23T12:58:35.328Z,102396.88
2022-08-23T13:01:08.317Z,102393.38
2022-08-23T13:03:40.580Z,102386.94
2022-08-23T13:06:12.216Z,102381.41
2022-08-23T13:08:45.096Z,102382.34
2022-08-23T13:11:16.042Z,102371.66
2022-08-23T13:13:45.432Z,102356.97
2022-08-23T13:16:28.927Z,102363.88
2022-08-23T13:19:11.132Z,102351.75
2022-08-23T13:21:40.220Z,102368.53
2022-08-23T13:24:37.778Z,102373.25
2022-08-23T13:27:22.071Z,102380.88
2022-08-23T13:29:54.720Z,102383.78
2022-08-23T13:32:38.308Z,102388.06
2022-08-23T13:35:38.802Z,102390.56
2022-08-23T13:38:22.011Z,102390.34
2022-08-23T13:41:02.078Z,102369.25
2022-08-23T13:43:35.007Z,102366.47
2022-08-23T13:46:13.906Z,102372.41
2022-08-23T13:48:48.860Z,102398.56
2022-08-23T13:51:31.279Z,102407.78
2022-08-23T13:54:02.200Z,102410.19
2022-08-23T13:56:35.894Z,102415.53
2022-08-23T13:59:19.649Z,102414.28
2022-08-23T14:01:47.717Z,102412.25
2022-08-23T14:04:16.020Z,102408.47
2022-08-23T14:06:44.080Z,102413.44
2022-08-23T14:09:17.224Z,102390.31
2022-08-23T14:11:48.903Z,102373.25
2022-08-23T14:14:17.089Z,102364.53
2022-08-23T14:16:45.202Z,102364.84
2022-08-23T14:19:16.449Z,102367.53
2022-08-23T14:21:47.200Z,102373.13
2022-08-23T14:24:15.278Z,102369.50
2022-08-23T14:26:51.883Z,102372.91
2022-08-23T14:29:22.835Z,102353.03
2022-08-23T14:31:52.049Z,102335.25
2022-08-23T14:34:20.735Z,102328.38
2022-08-23T14:39:37.203Z,102331.72
2022-08-23T14:42:06.379Z,102321.66
2022-08-23T14:44:36.514Z,102317.16
2022-08-23T14:47:05.786Z,102314.94
2022-08-23T14:49:34.120Z,102298.19
2022-08-23T14:52:02.624Z,102291.84
2022-08-23T14:54:30.826Z,102252.09
2022-08-23T14:56:59.005Z,102245.69
2022-08-23T14:59:27.105Z,102242.06
2022-08-23T15:01:57.796Z,102235.69
2022-08-23T15:04:30.382Z,102244.75
2022-08-23T15:07:19.578Z,102237.44
2022-08-23T15:09:48.630Z,102241.97
2022-08-23T15:15:06.303Z,102213.34
2022-08-23T15:17:39.170Z,102220.41
2022-08-23T15:20:08.109Z,102227.41
2022-08-23T15:22:39.952Z,102250.38
2022-08-23T15:25:13.587Z,102266.97
2022-08-23T15:27:42.337Z,102277.31
2022-08-23T15:30:11.934Z,102303.94
2022-08-23T15:32:41.544Z,102331.97
2022-08-23T15:35:20.626Z,102338.72
2022-08-23T15:37:50.161Z,102351.63
2022-08-23T15:40:18.453Z,102359.44
2022-08-23T15:42:46.556Z,102369.09
2022-08-23T15:45:14.581Z,102382.56
2022-08-23T15:47:49.350Z,102394.00
2022-08-23T15:50:20.073Z,102393.06
2022-08-23T15:52:48.104Z,102406.44
2022-08-23T15:55:16.742Z,102396.84
2022-08-23T15:57:50.071Z,102398.59
2022-08-23T16:00:20.708Z,102391.16
2022-08-23T16:03:20.217Z,102374.41
2022-08-23T16:05:41.127Z,102372.53
2022-08-23T16:08:14.293Z,102374.81
2022-08-23T16:10:42.405Z,102374.69
2022-08-23T16:13:10.473Z,102381.47
2022-08-23T16:15:39.855Z,102381.47
2022-08-23T16:18:09.720Z,102393.00
2022-08-23T16:20:38.921Z,102382.16
2022-08-23T16:23:07.223Z,102375.47
2022-08-23T16:25:35.679Z,102366.06
2022-08-23T16:28:04.936Z,102366.34
2022-08-23T16:30:32.938Z,102374.97
2022-08-23T16:33:01.280Z,102390.69
2022-08-23T16:35:30.808Z,102407.25
2022-08-23T16:37:58.846Z,102408.63
2022-08-23T16:40:27.020Z,102431.78
2022-08-23T16:42:56.394Z,102436.91
2022-08-23T16:45:25.204Z,102429.03
2022-08-23T16:47:54.716Z,102427.25
2022-08-23T16:50:22.808Z,102410.19
2022-08-23T16:52:52.354Z,102398.25
2022-08-23T16:55:20.630Z,102388.94
2022-08-23T16:57:48.729Z,102381.84
2022-08-23T17:00:17.432Z,102373.47
2022-08-23T17:02:46.172Z,102353.25
2022-08-23T17:05:16.601Z,102329.94
2022-08-23T17:07:44.713Z,102319.53
2022-08-23T17:10:16.018Z,102322.03
2022-08-23T17:12:47.076Z,102337.84
2022-08-23T17:15:20.679Z,102361.63
2022-08-23T17:17:49.045Z,102401.09
2022-08-23T17:20:18.204Z,102415.41
2022-08-23T17:22:47.114Z,102433.41
2022-08-23T17:25:17.856Z,102441.81
2022-08-23T17:27:47.684Z,102462.00
2022-08-23T17:30:19.071Z,102466.50
2022-08-23T17:32:48.879Z,102483.00
2022-08-23T17:35:18.608Z,102488.00
2022-08-23T17:37:47.239Z,102504.13
2022-08-23T17:40:19.869Z,102508.91
2022-08-23T17:42:50.000Z,102510.28
2022-08-23T17:45:18.649Z,102516.25
2022-08-23T17:47:46.820Z,102514.44
2022-08-23T17:50:15.531Z,102526.88
2022-08-23T17:52:45.123Z,102532.81
2022-08-23T17:55:16.971Z,102539.00
2022-08-23T17:57:49.275Z,102541.00
2022-08-23T18:00:19.787Z,102552.56
2022-08-23T18:02:47.889Z,102560.88
2022-08-23T18:05:16.946Z,102560.63
2022-08-23T18:07:45.185Z,102567.34
2022-08-23T18:10:14.323Z,102578.28
2022-08-23T18:12:43.368Z,102581.88
2022-08-23T18:15:13.326Z,102587.38
2022-08-23T18:17:41.962Z,102593.84
2022-08-23T18:20:12.582Z,102593.09
2022-08-23T18:22:41.404Z,102599.44
2022-08-23T18:25:13.436Z,102608.59
2022-08-23T18:27:59.112Z,102627.44
2022-08-23T18:30:28.991Z,102638.50
2022-08-23T18:32:57.695Z,102644.94
2022-08-23T18:35:29.335Z,102658.59
2022-08-23T18:37:57.904Z,102674.94
2022-08-23T18:40:27.338Z,102682.31
2022-08-23T18:42:56.214Z,102695.91
2022-08-23T18:45:24.689Z,102697.13
2022-08-23T18:47:54.403Z,102707.94
2022-08-23T18:50:22.673Z,102717.25
2022-08-23T18:52:50.663Z,102732.50
2022-08-23T18:55:20.277Z,102739.88
2022-08-23T18:57:48.482Z,102742.72
2022-08-23T19:00:16.882Z,102750.09
2022-08-23T19:02:45.181Z,102754.13
2022-08-23T19:05:14.770Z,102768.72
2022-08-23T19:07:42.952Z,102778.66
2022-08-23T19:10:11.740Z,102793.06
2022-08-23T19:12:39.745Z,102814.50
2022-08-23T19:15:20.245Z,102825.22
2022-08-23T19:17:48.780Z,102829.66
2022-08-23T19:20:19.291Z,102841.13
2022-08-23T19:22:47.478Z,102840.16
2022-08-23T19:25:15.555Z,102848.97
2022-08-23T19:27:43.625Z,102856.84
2022-08-23T19:30:13.012Z,102862.97
2022-08-23T19:32:46.314Z,102874.44
2022-08-23T19:35:14.603Z,102873.53
2022-08-23T19:37:44.034Z,102889.31
2022-08-23T19:40:14.440Z,102890.09
2022-08-23T19:42:42.535Z,102895.31
2022-08-23T19:45:11.654Z,102901.47
2022-08-23T19:47:40.763Z,102897.03
2022-08-23T19:50:09.943Z,102896.94
2022-08-23T19:52:38.764Z,102895.03
2022-08-23T19:55:09.294Z,102893.16
2022-08-23T19:57:38.359Z,102902.81
2022-08-23T20:00:17.054Z,102904.53
2022-08-23T20:02:47.432Z,102904.53
2022-08-23T20:05:15.820Z,102915.13
2022-08-23T20:07:44.333Z,102916.00
2022-08-23T20:10:15.840Z,102917.78
2022-08-23T20:12:43.918Z,102919.50
2022-08-23T20:15:13.552Z,102923.84
2022-08-23T20:17:42.041Z,102928.22
2022-08-23T20:20:13.789Z,102925.56
2022-08-23T20:23:00.116Z,102939.69
2022-08-23T20:25:30.793Z,102937.09
2022-08-23T20:27:59.419Z,102943.38
2022-08-23T20:30:27.502Z,102947.72
2022-08-23T20:32:55.612Z,102939.75
2022-08-23T20:35:23.768Z,102945.06
2022-08-23T20:37:51.917Z,102948.56
2022-08-23T20:40:20.536Z,102952.94
2022-08-23T20:42:51.844Z,102959.94
2022-08-23T20:45:20.167Z,102964.38
2022-08-23T20:47:48.405Z,102964.38
2022-08-23T20:50:16.442Z,102960.78
2022-08-23T20:52:44.405Z,102966.09
2022-08-23T20:55:14.970Z,102960.03
2022-08-23T20:57:43.038Z,102973.28
2022-08-23T21:00:13.955Z,102971.75
2022-08-23T21:02:42.040Z,102980.66
2022-08-23T21:05:10.681Z,102987.81
2022-08-23T21:07:38.652Z,102995.88
2022-08-23T21:10:07.698Z,102991.44
2022-08-23T21:12:36.072Z,102995.03
2022-08-23T21:15:06.883Z,103005.63
2022-08-23T21:17:39.705Z,103013.69
2022-08-23T21:20:08.481Z,103022.50
2022-08-23T21:22:36.555Z,103024.28
2022-08-23T21:25:05.093Z,103027.88
2022-08-23T21:27:33.232Z,103031.44
2022-08-23T21:30:01.356Z,103040.38
2022-08-23T21:32:29.367Z,103057.13
2022-08-23T21:34:59.219Z,103074.72
2022-08-23T21:37:28.319Z,103087.97
2022-08-23T21:39:56.675Z,103090.63
2022-08-23T21:42:25.083Z,103103.91
2022-08-23T21:44:53.672Z,103112.72
2022-08-23T21:47:21.690Z,103133.16
2022-08-23T21:49:49.727Z,103139.38
2022-08-23T21:52:19.105Z,103143.81
2022-08-23T21:54:47.063Z,103151.00
2022-08-23T21:57:15.283Z,103175.81
2022-08-23T21:59:43.644Z,103173.16
2022-08-23T22:02:11.754Z,103189.06
2022-08-23T22:04:40.212Z,103190.00
2022-08-23T22:07:08.671Z,103200.63
2022-08-23T22:09:38.223Z,103201.53
2022-08-23T22:12:07.621Z,103209.50
2022-08-23T22:14:35.831Z,103213.09
2022-08-23T22:17:04.304Z,103230.81
2022-08-23T22:19:32.425Z,103225.50
2022-08-23T22:22:01.093Z,103237.88
2022-08-23T22:24:29.135Z,103230.81
2022-08-23T22:26:58.696Z,103224.53
2022-08-23T22:29:26.705Z,103226.38
2022-08-23T22:31:56.402Z,103234.38
2022-08-23T22:34:27.603Z,103240.53
2022-08-23T22:36:55.861Z,103241.47
2022-08-23T22:39:24.749Z,103229.16
2022-08-23T22:41:52.798Z,103229.16
2022-08-23T22:44:22.360Z,103223.00
2022-08-23T22:46:50.382Z,103232.75
2022-08-23T22:49:18.452Z,103231.03
2022-08-23T22:51:46.590Z,103224.88
2022-08-23T22:54:17.833Z,103229.31
2022-08-23T22:56:48.386Z,103247.03
2022-08-23T22:59:17.675Z,103249.75
2022-08-23T23:01:50.500Z,103296.66
2022-08-23T23:04:20.830Z,103299.41
2022-08-23T23:06:49.300Z,103272.13
2022-08-23T23:09:18.005Z,103263.31
2022-08-23T23:11:46.831Z,103288.97
2022-08-23T23:14:16.608Z,103288.19
2022-08-23T23:16:45.319Z,103280.25
2022-08-23T23:19:32.204Z,103277.59
2022-08-23T23:22:01.438Z,103279.38
2022-08-23T23:24:31.773Z,103283.81
2022-08-23T23:27:00.355Z,103279.44
2022-08-23T23:29:28.682Z,103282.94
2022-08-23T23:31:57.828Z,103288.25
2022-08-23T23:34:28.001Z,103294.50
2022-08-23T23:36:57.215Z,103289.22
2022-08-23T23:39:25.824Z,103274.22
2022-08-23T23:41:54.794Z,103265.41
2022-08-23T23:44:29.935Z,103267.22
2022-08-23T23:47:01.083Z,103246.00
2022-08-23T23:49:32.506Z,103241.72
2022-08-23T23:52:02.471Z,103232.06
2022-08-23T23:54:30.493Z,103253.19
2022-08-23T23:56:58.650Z,103229.34
2022-08-23T23:59:27.149Z,103218.84
